sensor_id;sensor_type;location;lat;lon;timestamp;P1;durP1;ratioP1;P2;durP2;ratioP2
8564;SDS011;4320;51.498;6.556;2022-09-16T00:00:20;6.82;;;1.80;;
8564;SDS011;4320;51.498;6.556;2022-09-16T00:02:47;3.50;;;1.70;;
8564;SDS011;4320;51.498;6.556;2022-09-16T00:05:12;4.55;;;1.67;;
8564;SDS011;4320;51.498;6.556;2022-09-16T00:07:38;4.18;;;1.70;;
8564;SDS011;4320;51.498;6.556;2022-09-16T00:10:04;5.10;;;1.70;;
8564;SDS011;4320;51.498;6.556;2022-09-16T00:12:30;5.22;;;1.75;;
8564;SDS011;4320;51.498;6.556;2022-09-16T00:14:56;4.28;;;1.83;;
8564;SDS011;4320;51.498;6.556;2022-09-16T00:17:22;3.40;;;1.80;;
8564;SDS011;4320;51.498;6.556;2022-09-16T00:19:47;3.00;;;1.67;;
8564;SDS011;4320;51.498;6.556;2022-09-16T00:22:15;7.43;;;1.80;;
8564;SDS011;4320;51.498;6.556;2022-09-16T00:24:41;3.22;;;1.70;;
8564;SDS011;4320;51.498;6.556;2022-09-16T00:27:06;4.75;;;1.70;;
8564;SDS011;4320;51.498;6.556;2022-09-16T00:29:32;4.00;;;1.60;;
8564;SDS011;4320;51.498;6.556;2022-09-16T00:31:58;4.78;;;2.08;;
8564;SDS011;4320;51.498;6.556;2022-09-16T00:34:23;3.00;;;1.70;;
8564;SDS011;4320;51.498;6.556;2022-09-16T00:36:49;3.35;;;1.60;;
8564;SDS011;4320;51.498;6.556;2022-09-16T00:39:15;5.18;;;1.92;;
8564;SDS011;4320;51.498;6.556;2022-09-16T00:41:40;4.60;;;1.73;;
8564;SDS011;4320;51.498;6.556;2022-09-16T00:44:48;5.00;;;1.65;;
8564;SDS011;4320;51.498;6.556;2022-09-16T00:47:11;6.03;;;1.90;;
8564;SDS011;4320;51.498;6.556;2022-09-16T00:49:40;4.32;;;1.58;;
8564;SDS011;4320;51.498;6.556;2022-09-16T00:52:07;2.50;;;1.38;;
8564;SDS011;4320;51.498;6.556;2022-09-16T00:54:34;3.03;;;1.35;;
8564;SDS011;4320;51.498;6.556;2022-09-16T00:57:02;5.43;;;1.70;;
8564;SDS011;4320;51.498;6.556;2022-09-16T00:59:31;5.90;;;1.60;;
8564;SDS011;4320;51.498;6.556;2022-09-16T01:02:01;4.13;;;1.63;;
8564;SDS011;4320;51.498;6.556;2022-09-16T01:04:31;3.58;;;2.13;;
8564;SDS011;4320;51.498;6.556;2022-09-16T01:07:03;3.35;;;1.70;;
8564;SDS011;4320;51.498;6.556;2022-09-16T01:09:29;1.98;;;1.42;;
8564;SDS011;4320;51.498;6.556;2022-09-16T01:11:55;2.45;;;1.38;;
8564;SDS011;4320;51.498;6.556;2022-09-16T01:14:21;3.50;;;1.42;;
8564;SDS011;4320;51.498;6.556;2022-09-16T01:22:51;5.93;;;1.40;;
8564;SDS011;4320;51.498;6.556;2022-09-16T01:28:39;2.22;;;1.35;;
8564;SDS011;4320;51.498;6.556;2022-09-16T01:44:41;3.45;;;1.30;;
8564;SDS011;4320;51.498;6.556;2022-09-16T01:47:19;3.30;;;1.50;;
8564;SDS011;4320;51.498;6.556;2022-09-16T01:50:18;3.33;;;1.63;;
8564;SDS011;4320;51.498;6.556;2022-09-16T01:52:52;5.03;;;1.80;;
8564;SDS011;4320;51.498;6.556;2022-09-16T01:55:35;4.15;;;2.00;;
8564;SDS011;4320;51.498;6.556;2022-09-16T01:58:22;6.20;;;1.88;;
8564;SDS011;4320;51.498;6.556;2022-09-16T02:01:12;2.15;;;1.60;;
8564;SDS011;4320;51.498;6.556;2022-09-16T02:03:43;2.85;;;1.67;;
8564;SDS011;4320;51.498;6.556;2022-09-16T02:06:17;3.72;;;1.30;;
8564;SDS011;4320;51.498;6.556;2022-09-16T02:11:23;2.70;;;1.48;;
8564;SDS011;4320;51.498;6.556;2022-09-16T02:16:29;4.50;;;1.50;;
8564;SDS011;4320;51.498;6.556;2022-09-16T02:18:59;4.13;;;1.75;;
8564;SDS011;4320;51.498;6.556;2022-09-16T02:21:30;6.00;;;1.50;;
8564;SDS011;4320;51.498;6.556;2022-09-16T02:24:01;6.65;;;1.48;;
8564;SDS011;4320;51.498;6.556;2022-09-16T02:26:35;3.95;;;1.30;;
8564;SDS011;4320;51.498;6.556;2022-09-16T02:29:06;8.10;;;1.60;;
8564;SDS011;4320;51.498;6.556;2022-09-16T02:31:38;3.38;;;1.45;;
8564;SDS011;4320;51.498;6.556;2022-09-16T02:34:07;4.03;;;1.90;;
8564;SDS011;4320;51.498;6.556;2022-09-16T02:37:00;4.53;;;1.45;;
8564;SDS011;4320;51.498;6.556;2022-09-16T02:39:34;4.75;;;1.90;;
8564;SDS011;4320;51.498;6.556;2022-09-16T02:42:02;3.50;;;1.85;;
8564;SDS011;4320;51.498;6.556;2022-09-16T02:44:28;2.03;;;1.25;;
8564;SDS011;4320;51.498;6.556;2022-09-16T02:49:25;3.08;;;1.52;;
8564;SDS011;4320;51.498;6.556;2022-09-16T02:52:03;4.28;;;1.80;;
8564;SDS011;4320;51.498;6.556;2022-09-16T02:54:50;4.32;;;1.98;;
8564;SDS011;4320;51.498;6.556;2022-09-16T02:57:28;2.85;;;1.70;;
8564;SDS011;4320;51.498;6.556;2022-09-16T02:59:54;3.90;;;1.73;;
8564;SDS011;4320;51.498;6.556;2022-09-16T03:02:20;4.20;;;1.83;;
8564;SDS011;4320;51.498;6.556;2022-09-16T03:04:46;4.45;;;1.70;;
8564;SDS011;4320;51.498;6.556;2022-09-16T03:07:12;5.22;;;1.90;;
8564;SDS011;4320;51.498;6.556;2022-09-16T03:09:40;3.92;;;1.70;;
8564;SDS011;4320;51.498;6.556;2022-09-16T03:15:02;4.72;;;1.73;;
8564;SDS011;4320;51.498;6.556;2022-09-16T03:23:19;6.00;;;1.70;;
8564;SDS011;4320;51.498;6.556;2022-09-16T03:31:46;6.82;;;2.28;;
8564;SDS011;4320;51.498;6.556;2022-09-16T03:34:43;5.03;;;1.65;;
8564;SDS011;4320;51.498;6.556;2022-09-16T03:37:15;5.03;;;1.80;;
8564;SDS011;4320;51.498;6.556;2022-09-16T03:39:47;3.08;;;1.55;;
8564;SDS011;4320;51.498;6.556;2022-09-16T03:42:17;3.58;;;1.50;;
8564;SDS011;4320;51.498;6.556;2022-09-16T03:44:44;5.38;;;1.85;;
8564;SDS011;4320;51.498;6.556;2022-09-16T03:47:09;4.50;;;1.40;;
8564;SDS011;4320;51.498;6.556;2022-09-16T03:49:35;3.53;;;1.55;;
8564;SDS011;4320;51.498;6.556;2022-09-16T03:52:01;3.95;;;1.70;;
8564;SDS011;4320;51.498;6.556;2022-09-16T03:54:32;2.45;;;1.40;;
8564;SDS011;4320;51.498;6.556;2022-09-16T03:56:59;4.70;;;1.73;;
8564;SDS011;4320;51.498;6.556;2022-09-16T03:59:25;3.85;;;1.60;;
8564;SDS011;4320;51.498;6.556;2022-09-16T04:01:51;5.38;;;1.83;;
8564;SDS011;4320;51.498;6.556;2022-09-16T04:04:17;4.68;;;1.52;;
8564;SDS011;4320;51.498;6.556;2022-09-16T04:06:42;4.70;;;1.77;;
8564;SDS011;4320;51.498;6.556;2022-09-16T04:09:11;7.07;;;2.72;;
8564;SDS011;4320;51.498;6.556;2022-09-16T04:11:37;5.43;;;1.83;;
8564;SDS011;4320;51.498;6.556;2022-09-16T04:14:04;5.47;;;2.08;;
8564;SDS011;4320;51.498;6.556;2022-09-16T04:16:30;6.88;;;2.10;;
8564;SDS011;4320;51.498;6.556;2022-09-16T04:18:56;3.10;;;1.65;;
8564;SDS011;4320;51.498;6.556;2022-09-16T04:21:22;4.00;;;1.77;;
8564;SDS011;4320;51.498;6.556;2022-09-16T04:23:48;2.42;;;1.58;;
8564;SDS011;4320;51.498;6.556;2022-09-16T04:26:14;1.90;;;1.50;;
8564;SDS011;4320;51.498;6.556;2022-09-16T04:28:40;5.38;;;1.58;;
8564;SDS011;4320;51.498;6.556;2022-09-16T04:31:07;3.05;;;1.33;;
8564;SDS011;4320;51.498;6.556;2022-09-16T04:33:36;3.60;;;1.80;;
8564;SDS011;4320;51.498;6.556;2022-09-16T04:38:28;2.15;;;1.60;;
8564;SDS011;4320;51.498;6.556;2022-09-16T04:40:58;5.53;;;1.63;;
8564;SDS011;4320;51.498;6.556;2022-09-16T04:43:28;4.90;;;1.70;;
8564;SDS011;4320;51.498;6.556;2022-09-16T04:45:54;2.35;;;1.50;;
8564;SDS011;4320;51.498;6.556;2022-09-16T04:48:19;1.95;;;1.77;;
8564;SDS011;4320;51.498;6.556;2022-09-16T04:50:45;3.28;;;1.55;;
8564;SDS011;4320;51.498;6.556;2022-09-16T04:53:10;4.97;;;2.08;;
8564;SDS011;4320;51.498;6.556;2022-09-16T04:55:36;4.65;;;2.10;;
8564;SDS011;4320;51.498;6.556;2022-09-16T04:58:02;4.32;;;2.30;;
8564;SDS011;4320;51.498;6.556;2022-09-16T05:00:27;5.82;;;2.50;;
8564;SDS011;4320;51.498;6.556;2022-09-16T05:02:53;7.13;;;1.83;;
8564;SDS011;4320;51.498;6.556;2022-09-16T05:05:19;6.00;;;2.42;;
8564;SDS011;4320;51.498;6.556;2022-09-16T05:07:45;6.18;;;2.28;;
8564;SDS011;4320;51.498;6.556;2022-09-16T05:10:11;5.35;;;2.58;;
8564;SDS011;4320;51.498;6.556;2022-09-16T05:12:37;5.88;;;2.78;;
8564;SDS011;4320;51.498;6.556;2022-09-16T05:15:03;4.78;;;2.63;;
8564;SDS011;4320;51.498;6.556;2022-09-16T05:17:29;4.85;;;2.42;;
8564;SDS011;4320;51.498;6.556;2022-09-16T05:19:55;4.18;;;2.30;;
8564;SDS011;4320;51.498;6.556;2022-09-16T05:22:21;6.28;;;2.55;;
8564;SDS011;4320;51.498;6.556;2022-09-16T05:24:47;4.65;;;2.47;;
8564;SDS011;4320;51.498;6.556;2022-09-16T05:27:12;7.45;;;2.97;;
8564;SDS011;4320;51.498;6.556;2022-09-16T05:29:38;6.40;;;2.78;;
8564;SDS011;4320;51.498;6.556;2022-09-16T05:32:04;6.80;;;2.80;;
8564;SDS011;4320;51.498;6.556;2022-09-16T05:34:30;7.43;;;3.08;;
8564;SDS011;4320;51.498;6.556;2022-09-16T05:36:55;5.70;;;2.80;;
8564;SDS011;4320;51.498;6.556;2022-09-16T05:39:21;4.28;;;2.80;;
8564;SDS011;4320;51.498;6.556;2022-09-16T05:41:48;3.92;;;2.53;;
8564;SDS011;4320;51.498;6.556;2022-09-16T05:44:16;5.70;;;2.58;;
8564;SDS011;4320;51.498;6.556;2022-09-16T05:46:41;9.55;;;2.80;;
8564;SDS011;4320;51.498;6.556;2022-09-16T05:49:08;7.72;;;3.30;;
8564;SDS011;4320;51.498;6.556;2022-09-16T05:51:35;5.03;;;2.70;;
8564;SDS011;4320;51.498;6.556;2022-09-16T05:54:02;6.85;;;3.28;;
8564;SDS011;4320;51.498;6.556;2022-09-16T05:56:28;7.13;;;2.90;;
8564;SDS011;4320;51.498;6.556;2022-09-16T05:58:56;3.22;;;2.60;;
8564;SDS011;4320;51.498;6.556;2022-09-16T06:01:24;5.38;;;2.92;;
8564;SDS011;4320;51.498;6.556;2022-09-16T06:03:52;7.78;;;2.97;;
8564;SDS011;4320;51.498;6.556;2022-09-16T06:09:06;5.68;;;3.20;;
8564;SDS011;4320;51.498;6.556;2022-09-16T06:11:34;3.67;;;2.78;;
8564;SDS011;4320;51.498;6.556;2022-09-16T06:14:02;3.90;;;2.60;;
8564;SDS011;4320;51.498;6.556;2022-09-16T06:16:30;5.15;;;3.00;;
8564;SDS011;4320;51.498;6.556;2022-09-16T06:19:00;7.72;;;3.30;;
8564;SDS011;4320;51.498;6.556;2022-09-16T06:21:27;5.10;;;2.72;;
8564;SDS011;4320;51.498;6.556;2022-09-16T06:23:54;8.27;;;3.30;;
8564;SDS011;4320;51.498;6.556;2022-09-16T06:26:21;5.38;;;2.95;;
8564;SDS011;4320;51.498;6.556;2022-09-16T06:28:48;5.25;;;2.95;;
8564;SDS011;4320;51.498;6.556;2022-09-16T06:31:16;9.32;;;3.20;;
8564;SDS011;4320;51.498;6.556;2022-09-16T06:33:49;5.88;;;2.50;;
8564;SDS011;4320;51.498;6.556;2022-09-16T06:36:16;8.65;;;3.05;;
8564;SDS011;4320;51.498;6.556;2022-09-16T06:38:44;5.47;;;2.83;;
8564;SDS011;4320;51.498;6.556;2022-09-16T06:41:11;6.00;;;3.08;;
8564;SDS011;4320;51.498;6.556;2022-09-16T06:43:37;4.45;;;3.10;;
8564;SDS011;4320;51.498;6.556;2022-09-16T06:46:06;5.07;;;2.65;;
8564;SDS011;4320;51.498;6.556;2022-09-16T06:48:37;8.90;;;3.10;;
8564;SDS011;4320;51.498;6.556;2022-09-16T06:51:05;6.63;;;2.65;;
8564;SDS011;4320;51.498;6.556;2022-09-16T06:53:33;7.57;;;2.90;;
8564;SDS011;4320;51.498;6.556;2022-09-16T06:56:03;5.35;;;3.17;;
8564;SDS011;4320;51.498;6.556;2022-09-16T06:58:31;4.97;;;2.70;;
8564;SDS011;4320;51.498;6.556;2022-09-16T07:00:58;7.13;;;2.67;;
8564;SDS011;4320;51.498;6.556;2022-09-16T07:03:32;3.15;;;2.28;;
8564;SDS011;4320;51.498;6.556;2022-09-16T07:06:01;5.38;;;2.65;;
8564;SDS011;4320;51.498;6.556;2022-09-16T07:08:28;3.88;;;2.10;;
8564;SDS011;4320;51.498;6.556;2022-09-16T07:10:59;6.80;;;2.22;;
8564;SDS011;4320;51.498;6.556;2022-09-16T07:13:27;4.90;;;2.47;;
8564;SDS011;4320;51.498;6.556;2022-09-16T07:15:53;5.50;;;2.70;;
8564;SDS011;4320;51.498;6.556;2022-09-16T07:18:18;3.58;;;2.28;;
8564;SDS011;4320;51.498;6.556;2022-09-16T07:20:44;3.40;;;1.80;;
8564;SDS011;4320;51.498;6.556;2022-09-16T07:23:10;5.43;;;2.05;;
8564;SDS011;4320;51.498;6.556;2022-09-16T07:25:36;3.05;;;1.75;;
8564;SDS011;4320;51.498;6.556;2022-09-16T07:28:01;3.72;;;1.80;;
8564;SDS011;4320;51.498;6.556;2022-09-16T07:30:27;5.78;;;2.22;;
8564;SDS011;4320;51.498;6.556;2022-09-16T07:32:55;2.67;;;1.95;;
8564;SDS011;4320;51.498;6.556;2022-09-16T07:35:21;3.15;;;1.70;;
8564;SDS011;4320;51.498;6.556;2022-09-16T07:37:47;6.40;;;1.90;;
8564;SDS011;4320;51.498;6.556;2022-09-16T07:40:12;3.03;;;1.92;;
8564;SDS011;4320;51.498;6.556;2022-09-16T07:42:38;3.25;;;1.88;;
8564;SDS011;4320;51.498;6.556;2022-09-16T07:45:04;4.70;;;1.73;;
8564;SDS011;4320;51.498;6.556;2022-09-16T07:47:30;4.60;;;1.83;;
8564;SDS011;4320;51.498;6.556;2022-09-16T07:49:56;4.60;;;1.63;;
8564;SDS011;4320;51.498;6.556;2022-09-16T07:52:22;2.50;;;1.60;;
8564;SDS011;4320;51.498;6.556;2022-09-16T07:54:56;3.72;;;1.63;;
8564;SDS011;4320;51.498;6.556;2022-09-16T07:57:21;1.30;;;1.20;;
8564;SDS011;4320;51.498;6.556;2022-09-16T07:59:48;2.38;;;1.40;;
8564;SDS011;4320;51.498;6.556;2022-09-16T08:02:14;3.47;;;1.83;;
8564;SDS011;4320;51.498;6.556;2022-09-16T08:04:39;3.47;;;1.15;;
8564;SDS011;4320;51.498;6.556;2022-09-16T08:07:05;3.08;;;1.27;;
8564;SDS011;4320;51.498;6.556;2022-09-16T08:09:31;3.47;;;1.25;;
8564;SDS011;4320;51.498;6.556;2022-09-16T08:11:57;3.53;;;1.27;;
8564;SDS011;4320;51.498;6.556;2022-09-16T08:14:23;6.32;;;1.25;;
8564;SDS011;4320;51.498;6.556;2022-09-16T08:16:49;3.50;;;1.17;;
8564;SDS011;4320;51.498;6.556;2022-09-16T08:19:15;2.85;;;1.17;;
8564;SDS011;4320;51.498;6.556;2022-09-16T08:21:41;3.70;;;1.27;;
8564;SDS011;4320;51.498;6.556;2022-09-16T08:24:07;2.83;;;1.45;;
8564;SDS011;4320;51.498;6.556;2022-09-16T08:26:34;2.40;;;1.20;;
8564;SDS011;4320;51.498;6.556;2022-09-16T08:28:59;2.70;;;1.08;;
8564;SDS011;4320;51.498;6.556;2022-09-16T08:31:25;1.98;;;1.20;;
8564;SDS011;4320;51.498;6.556;2022-09-16T08:33:51;3.95;;;1.45;;
8564;SDS011;4320;51.498;6.556;2022-09-16T08:36:21;2.28;;;1.20;;
8564;SDS011;4320;51.498;6.556;2022-09-16T08:38:49;6.82;;;1.50;;
8564;SDS011;4320;51.498;6.556;2022-09-16T08:44:01;1.98;;;0.90;;
8564;SDS011;4320;51.498;6.556;2022-09-16T08:49:01;3.42;;;1.42;;
8564;SDS011;4320;51.498;6.556;2022-09-16T08:51:38;3.75;;;1.40;;
8564;SDS011;4320;51.498;6.556;2022-09-16T08:54:50;4.43;;;1.25;;
8564;SDS011;4320;51.498;6.556;2022-09-16T08:57:02;9.70;;;1.40;;
8564;SDS011;4320;51.498;6.556;2022-09-16T08:59:32;3.47;;;1.13;;
8564;SDS011;4320;51.498;6.556;2022-09-16T09:04:43;3.13;;;1.27;;
8564;SDS011;4320;51.498;6.556;2022-09-16T09:17:35;4.70;;;1.27;;
8564;SDS011;4320;51.498;6.556;2022-09-16T09:58:39;2.58;;;1.23;;
8564;SDS011;4320;51.498;6.556;2022-09-16T10:01:20;2.80;;;0.90;;
8564;SDS011;4320;51.498;6.556;2022-09-16T10:03:47;3.38;;;1.48;;
8564;SDS011;4320;51.498;6.556;2022-09-16T10:06:14;4.07;;;1.20;;
8564;SDS011;4320;51.498;6.556;2022-09-16T10:08:43;4.80;;;1.27;;
8564;SDS011;4320;51.498;6.556;2022-09-16T10:11:17;2.05;;;1.10;;
8564;SDS011;4320;51.498;6.556;2022-09-16T10:13:48;2.85;;;1.13;;
8564;SDS011;4320;51.498;6.556;2022-09-16T10:16:19;2.30;;;1.00;;
8564;SDS011;4320;51.498;6.556;2022-09-16T10:18:55;3.40;;;1.13;;
8564;SDS011;4320;51.498;6.556;2022-09-16T10:21:37;3.13;;;1.00;;
8564;SDS011;4320;51.498;6.556;2022-09-16T10:26:58;5.95;;;1.40;;
8564;SDS011;4320;51.498;6.556;2022-09-16T10:29:24;4.50;;;1.13;;
8564;SDS011;4320;51.498;6.556;2022-09-16T10:31:50;4.63;;;1.10;;
8564;SDS011;4320;51.498;6.556;2022-09-16T10:34:22;2.08;;;1.00;;
8564;SDS011;4320;51.498;6.556;2022-09-16T10:39:50;7.13;;;1.60;;
8564;SDS011;4320;51.498;6.556;2022-09-16T10:42:22;2.10;;;1.10;;
8564;SDS011;4320;51.498;6.556;2022-09-16T10:44:50;2.67;;;0.95;;
8564;SDS011;4320;51.498;6.556;2022-09-16T10:47:22;3.20;;;1.13;;
8564;SDS011;4320;51.498;6.556;2022-09-16T10:49:50;3.40;;;0.90;;
8564;SDS011;4320;51.498;6.556;2022-09-16T10:52:22;1.85;;;1.15;;
8564;SDS011;4320;51.498;6.556;2022-09-16T10:54:49;6.20;;;1.50;;
8564;SDS011;4320;51.498;6.556;2022-09-16T10:57:26;6.00;;;1.80;;
8564;SDS011;4320;51.498;6.556;2022-09-16T11:16:53;1.52;;;1.08;;
8564;SDS011;4320;51.498;6.556;2022-09-16T11:19:47;3.20;;;1.00;;
8564;SDS011;4320;51.498;6.556;2022-09-16T11:41:31;3.67;;;0.93;;
8564;SDS011;4320;51.498;6.556;2022-09-16T11:44:28;2.72;;;0.80;;
8564;SDS011;4320;51.498;6.556;2022-09-16T11:57:47;2.75;;;1.13;;
8564;SDS011;4320;51.498;6.556;2022-09-16T12:00:18;3.95;;;1.63;;
8564;SDS011;4320;51.498;6.556;2022-09-16T12:02:47;2.75;;;1.10;;
8564;SDS011;4320;51.498;6.556;2022-09-16T12:05:20;2.97;;;1.30;;
8564;SDS011;4320;51.498;6.556;2022-09-16T12:11:00;1.30;;;0.80;;
8564;SDS011;4320;51.498;6.556;2022-09-16T12:13:35;1.55;;;0.75;;
8564;SDS011;4320;51.498;6.556;2022-09-16T12:16:07;1.67;;;1.00;;
8564;SDS011;4320;51.498;6.556;2022-09-16T12:18:36;1.52;;;1.08;;
8564;SDS011;4320;51.498;6.556;2022-09-16T12:24:02;1.10;;;1.00;;
8564;SDS011;4320;51.498;6.556;2022-09-16T12:26:36;2.33;;;0.90;;
8564;SDS011;4320;51.498;6.556;2022-09-16T12:37:21;1.45;;;1.00;;
8564;SDS011;4320;51.498;6.556;2022-09-16T12:40:00;2.00;;;0.90;;
8564;SDS011;4320;51.498;6.556;2022-09-16T12:50:56;3.13;;;1.20;;
8564;SDS011;4320;51.498;6.556;2022-09-16T12:56:39;4.72;;;1.45;;
8564;SDS011;4320;51.498;6.556;2022-09-16T13:02:03;1.95;;;1.40;;
8564;SDS011;4320;51.498;6.556;2022-09-16T13:04:45;2.45;;;1.45;;
8564;SDS011;4320;51.498;6.556;2022-09-16T13:07:26;4.03;;;1.73;;
8564;SDS011;4320;51.498;6.556;2022-09-16T13:10:04;3.53;;;1.52;;
8564;SDS011;4320;51.498;6.556;2022-09-16T13:12:31;7.38;;;2.28;;
8564;SDS011;4320;51.498;6.556;2022-09-16T13:14:58;2.53;;;1.30;;
8564;SDS011;4320;51.498;6.556;2022-09-16T13:17:30;2.95;;;1.40;;
8564;SDS011;4320;51.498;6.556;2022-09-16T13:25:55;2.97;;;1.30;;
8564;SDS011;4320;51.498;6.556;2022-09-16T13:28:23;1.20;;;1.10;;
8564;SDS011;4320;51.498;6.556;2022-09-16T13:31:14;1.45;;;1.08;;
8564;SDS011;4320;51.498;6.556;2022-09-16T13:33:43;1.45;;;1.00;;
8564;SDS011;4320;51.498;6.556;2022-09-16T13:36:13;1.95;;;1.10;;
8564;SDS011;4320;51.498;6.556;2022-09-16T13:39:02;2.08;;;1.13;;
8564;SDS011;4320;51.498;6.556;2022-09-16T13:41:36;1.13;;;1.00;;
8564;SDS011;4320;51.498;6.556;2022-09-16T13:44:24;1.65;;;1.00;;
8564;SDS011;4320;51.498;6.556;2022-09-16T13:49:34;3.30;;;0.88;;
8564;SDS011;4320;51.498;6.556;2022-09-16T13:52:15;1.02;;;0.93;;
8564;SDS011;4320;51.498;6.556;2022-09-16T13:54:50;2.78;;;1.00;;
8564;SDS011;4320;51.498;6.556;2022-09-16T14:05:55;2.13;;;0.90;;
8564;SDS011;4320;51.498;6.556;2022-09-16T15:17:58;4.43;;;1.38;;
8564;SDS011;4320;51.498;6.556;2022-09-16T15:27:19;2.65;;;1.40;;
8564;SDS011;4320;51.498;6.556;2022-09-16T15:29:47;4.10;;;1.48;;
8564;SDS011;4320;51.498;6.556;2022-09-16T15:32:18;3.80;;;1.30;;
8564;SDS011;4320;51.498;6.556;2022-09-16T15:34:46;3.70;;;1.52;;
8564;SDS011;4320;51.498;6.556;2022-09-16T15:37:29;3.60;;;1.42;;
8564;SDS011;4320;51.498;6.556;2022-09-16T15:43:00;7.20;;;1.60;;
8564;SDS011;4320;51.498;6.556;2022-09-16T15:45:26;2.28;;;1.30;;
8564;SDS011;4320;51.498;6.556;2022-09-16T15:47:57;1.70;;;1.30;;
8564;SDS011;4320;51.498;6.556;2022-09-16T15:50:25;2.63;;;1.60;;
8564;SDS011;4320;51.498;6.556;2022-09-16T15:53:11;3.80;;;1.60;;
8564;SDS011;4320;51.498;6.556;2022-09-16T15:55:51;4.53;;;1.73;;
8564;SDS011;4320;51.498;6.556;2022-09-16T16:01:32;5.20;;;1.80;;
8564;SDS011;4320;51.498;6.556;2022-09-16T16:04:05;3.40;;;1.33;;
8564;SDS011;4320;51.498;6.556;2022-09-16T16:06:53;13.40;;;1.98;;
8564;SDS011;4320;51.498;6.556;2022-09-16T16:11:52;1.50;;;1.20;;
8564;SDS011;4320;51.498;6.556;2022-09-16T16:14:29;3.22;;;1.00;;
8564;SDS011;4320;51.498;6.556;2022-09-16T16:16:57;2.70;;;1.30;;
8564;SDS011;4320;51.498;6.556;2022-09-16T16:19:34;3.30;;;1.52;;
8564;SDS011;4320;51.498;6.556;2022-09-16T16:22:01;3.42;;;1.30;;
8564;SDS011;4320;51.498;6.556;2022-09-16T16:24:26;2.25;;;1.00;;
8564;SDS011;4320;51.498;6.556;2022-09-16T16:26:54;7.32;;;1.50;;
8564;SDS011;4320;51.498;6.556;2022-09-16T16:29:20;1.77;;;1.15;;
8564;SDS011;4320;51.498;6.556;2022-09-16T16:34:33;2.53;;;1.20;;
8564;SDS011;4320;51.498;6.556;2022-09-16T16:37:00;3.85;;;1.50;;
8564;SDS011;4320;51.498;6.556;2022-09-16T16:39:26;5.65;;;1.67;;
8564;SDS011;4320;51.498;6.556;2022-09-16T16:41:52;3.00;;;1.55;;
8564;SDS011;4320;51.498;6.556;2022-09-16T16:44:18;2.55;;;1.13;;
8564;SDS011;4320;51.498;6.556;2022-09-16T16:46:46;3.03;;;1.52;;
8564;SDS011;4320;51.498;6.556;2022-09-16T16:49:11;8.55;;;1.98;;
8564;SDS011;4320;51.498;6.556;2022-09-16T16:51:37;4.82;;;1.90;;
8564;SDS011;4320;51.498;6.556;2022-09-16T16:54:03;7.15;;;1.52;;
8564;SDS011;4320;51.498;6.556;2022-09-16T16:56:28;2.55;;;1.10;;
8564;SDS011;4320;51.498;6.556;2022-09-16T16:58:54;4.30;;;1.33;;
8564;SDS011;4320;51.498;6.556;2022-09-16T17:01:19;6.57;;;2.08;;
8564;SDS011;4320;51.498;6.556;2022-09-16T17:03:46;6.40;;;1.50;;
8564;SDS011;4320;51.498;6.556;2022-09-16T17:06:15;5.80;;;1.30;;
8564;SDS011;4320;51.498;6.556;2022-09-16T17:08:42;4.10;;;1.38;;
8564;SDS011;4320;51.498;6.556;2022-09-16T17:11:11;6.30;;;1.50;;
8564;SDS011;4320;51.498;6.556;2022-09-16T17:13:39;4.85;;;1.70;;
8564;SDS011;4320;51.498;6.556;2022-09-16T17:16:07;6.18;;;1.45;;
8564;SDS011;4320;51.498;6.556;2022-09-16T17:18:36;4.47;;;2.15;;
8564;SDS011;4320;51.498;6.556;2022-09-16T17:21:03;5.28;;;1.60;;
8564;SDS011;4320;51.498;6.556;2022-09-16T17:23:31;4.82;;;1.50;;
8564;SDS011;4320;51.498;6.556;2022-09-16T17:25:57;3.15;;;1.80;;
8564;SDS011;4320;51.498;6.556;2022-09-16T17:28:23;5.85;;;1.90;;
8564;SDS011;4320;51.498;6.556;2022-09-16T17:30:49;4.25;;;1.63;;
8564;SDS011;4320;51.498;6.556;2022-09-16T17:33:15;2.33;;;1.67;;
8564;SDS011;4320;51.498;6.556;2022-09-16T17:35:40;4.85;;;1.73;;
8564;SDS011;4320;51.498;6.556;2022-09-16T17:38:06;4.20;;;1.40;;
8564;SDS011;4320;51.498;6.556;2022-09-16T17:40:32;3.40;;;1.48;;
8564;SDS011;4320;51.498;6.556;2022-09-16T17:42:58;4.20;;;1.40;;
8564;SDS011;4320;51.498;6.556;2022-09-16T17:45:24;6.03;;;1.80;;
8564;SDS011;4320;51.498;6.556;2022-09-16T17:47:49;5.40;;;1.60;;
8564;SDS011;4320;51.498;6.556;2022-09-16T17:50:15;3.25;;;1.30;;
8564;SDS011;4320;51.498;6.556;2022-09-16T17:52:42;3.25;;;1.45;;
8564;SDS011;4320;51.498;6.556;2022-09-16T17:55:08;6.32;;;1.83;;
8564;SDS011;4320;51.498;6.556;2022-09-16T17:57:35;2.63;;;1.45;;
8564;SDS011;4320;51.498;6.556;2022-09-16T18:00:01;5.43;;;1.80;;
8564;SDS011;4320;51.498;6.556;2022-09-16T18:02:28;2.92;;;1.40;;
8564;SDS011;4320;51.498;6.556;2022-09-16T18:04:54;6.35;;;1.83;;
8564;SDS011;4320;51.498;6.556;2022-09-16T18:07:20;4.93;;;1.40;;
8564;SDS011;4320;51.498;6.556;2022-09-16T18:09:47;4.75;;;1.58;;
8564;SDS011;4320;51.498;6.556;2022-09-16T18:12:13;3.53;;;1.33;;
8564;SDS011;4320;51.498;6.556;2022-09-16T18:14:38;3.58;;;1.55;;
8564;SDS011;4320;51.498;6.556;2022-09-16T18:17:04;4.15;;;1.40;;
8564;SDS011;4320;51.498;6.556;2022-09-16T18:19:29;4.25;;;1.55;;
8564;SDS011;4320;51.498;6.556;2022-09-16T18:21:55;3.95;;;1.50;;
8564;SDS011;4320;51.498;6.556;2022-09-16T18:24:21;2.90;;;1.27;;
8564;SDS011;4320;51.498;6.556;2022-09-16T18:26:46;7.47;;;1.58;;
8564;SDS011;4320;51.498;6.556;2022-09-16T18:29:13;6.75;;;1.65;;
8564;SDS011;4320;51.498;6.556;2022-09-16T18:31:41;3.90;;;1.60;;
8564;SDS011;4320;51.498;6.556;2022-09-16T18:34:08;4.55;;;1.30;;
8564;SDS011;4320;51.498;6.556;2022-09-16T18:36:34;4.03;;;1.45;;
8564;SDS011;4320;51.498;6.556;2022-09-16T18:39:01;4.55;;;1.75;;
8564;SDS011;4320;51.498;6.556;2022-09-16T18:41:30;5.35;;;1.92;;
8564;SDS011;4320;51.498;6.556;2022-09-16T18:44:00;7.18;;;1.35;;
8564;SDS011;4320;51.498;6.556;2022-09-16T18:46:35;3.50;;;1.17;;
8564;SDS011;4320;51.498;6.556;2022-09-16T18:49:02;2.70;;;1.27;;
8564;SDS011;4320;51.498;6.556;2022-09-16T18:51:30;2.65;;;1.13;;
8564;SDS011;4320;51.498;6.556;2022-09-16T18:54:01;14.65;;;1.67;;
8564;SDS011;4320;51.498;6.556;2022-09-16T18:56:29;4.90;;;1.40;;
8564;SDS011;4320;51.498;6.556;2022-09-16T18:58:58;4.53;;;2.03;;
8564;SDS011;4320;51.498;6.556;2022-09-16T19:01:26;5.28;;;1.73;;
8564;SDS011;4320;51.498;6.556;2022-09-16T19:04:00;5.55;;;2.03;;
8564;SDS011;4320;51.498;6.556;2022-09-16T19:06:28;5.80;;;1.35;;
8564;SDS011;4320;51.498;6.556;2022-09-16T19:08:55;3.42;;;1.65;;
8564;SDS011;4320;51.498;6.556;2022-09-16T19:11:21;4.60;;;1.40;;
8564;SDS011;4320;51.498;6.556;2022-09-16T19:13:47;6.57;;;1.27;;
8564;SDS011;4320;51.498;6.556;2022-09-16T19:16:13;4.68;;;1.55;;
8564;SDS011;4320;51.498;6.556;2022-09-16T19:18:39;5.32;;;1.70;;
8564;SDS011;4320;51.498;6.556;2022-09-16T19:21:10;3.38;;;1.40;;
8564;SDS011;4320;51.498;6.556;2022-09-16T19:23:41;2.35;;;1.50;;
8564;SDS011;4320;51.498;6.556;2022-09-16T19:26:08;3.75;;;1.30;;
8564;SDS011;4320;51.498;6.556;2022-09-16T19:28:34;7.35;;;1.55;;
8564;SDS011;4320;51.498;6.556;2022-09-16T19:31:00;4.93;;;1.52;;
8564;SDS011;4320;51.498;6.556;2022-09-16T19:33:27;4.22;;;1.55;;
8564;SDS011;4320;51.498;6.556;2022-09-16T19:35:52;7.68;;;1.63;;
8564;SDS011;4320;51.498;6.556;2022-09-16T19:38:18;7.47;;;1.65;;
8564;SDS011;4320;51.498;6.556;2022-09-16T19:40:47;5.55;;;1.80;;
8564;SDS011;4320;51.498;6.556;2022-09-16T19:43:13;5.82;;;1.70;;
8564;SDS011;4320;51.498;6.556;2022-09-16T19:45:39;2.20;;;1.25;;
8564;SDS011;4320;51.498;6.556;2022-09-16T19:48:05;3.65;;;1.50;;
8564;SDS011;4320;51.498;6.556;2022-09-16T19:50:31;6.97;;;1.77;;
8564;SDS011;4320;51.498;6.556;2022-09-16T19:52:57;4.88;;;1.60;;
8564;SDS011;4320;51.498;6.556;2022-09-16T19:55:22;4.82;;;1.55;;
8564;SDS011;4320;51.498;6.556;2022-09-16T19:57:48;7.35;;;1.98;;
8564;SDS011;4320;51.498;6.556;2022-09-16T20:00:13;4.70;;;1.77;;
8564;SDS011;4320;51.498;6.556;2022-09-16T20:02:43;6.20;;;2.50;;
8564;SDS011;4320;51.498;6.556;2022-09-16T20:05:09;4.63;;;1.95;;
8564;SDS011;4320;51.498;6.556;2022-09-16T20:07:36;6.63;;;1.80;;
8564;SDS011;4320;51.498;6.556;2022-09-16T20:10:02;6.47;;;1.77;;
8564;SDS011;4320;51.498;6.556;2022-09-16T20:12:28;6.88;;;1.63;;
8564;SDS011;4320;51.498;6.556;2022-09-16T20:14:53;8.02;;;1.90;;
8564;SDS011;4320;51.498;6.556;2022-09-16T20:17:19;7.53;;;1.80;;
8564;SDS011;4320;51.498;6.556;2022-09-16T20:19:45;5.82;;;1.70;;